KGUP

Gallup Municipal Airport

Gallup, New Mexico, USA
METAR KGUP 271153Z AUTO 08004KT 10SM CLR 02/M12 A3006 RMK AO2 SLP064 T00221122 10144 21006 53008
Observed Flight Rules
May-27 @ 11:53 UTC (11 minutes ago) Visual Flight Rules
Wind Visibility Clouds
80° at 4 knots 10 miles
  • Clear skies
Temperatures Readings
Current 2°C / 36°F
Dewpoint -12°C / 10°F
Humidity 35%
Altimeter 30.06" Hg
Pressure 1006.4 hPa
Elevation 1971
METAR KGUP 271153Z AUTO 08004KT 10SM CLR 02/M12 A3006 RMK AO2 SLP064 T00221122 10144 21006 53008
Observed Flight Rules
May-27 @ 11:53 UTC
(11 minutes ago)
VFR
Wind Visibility
80° at 4 knots 10 miles
Clouds
  • Clear skies
Temperature Dewpoint
2°C / 36°F -12°C / 10°F
Humidity Altimeter Pressure
35% 30.06" Hg 1006.4 hPa